createdAt,value
2018-07-01T00:00:50.582Z,68.48
2018-07-01T00:01:50.574Z,68.48
2018-07-01T00:02:50.569Z,68.48
2018-07-01T00:03:50.559Z,68.57
2018-07-01T00:04:50.552Z,68.57
2018-07-01T00:05:50.543Z,67.99
2018-07-01T00:06:50.535Z,68.48
2018-07-01T00:07:50.529Z,68.57
2018-07-01T00:08:50.524Z,68.38
2018-07-01T00:09:50.517Z,68.48
2018-07-01T00:10:50.558Z,68.57
2018-07-01T00:11:50.496Z,68.19
2018-07-01T00:12:50.492Z,68.57
2018-07-01T00:13:50.486Z,68.48
2018-07-01T00:14:50.476Z,68.15
2018-07-01T00:15:50.470Z,68.67
2018-07-01T00:16:50.463Z,67.90
2018-07-01T00:17:50.453Z,68.48
2018-07-01T00:18:50.444Z,67.80
2018-07-01T00:19:50.437Z,67.99
2018-07-01T00:20:50.436Z,68.57
2018-07-01T00:21:50.420Z,68.63
2018-07-01T00:22:50.417Z,68.76
2018-07-01T00:23:50.414Z,68.83
2018-07-01T00:24:50.400Z,69.31
2018-07-01T00:25:50.391Z,69.31
2018-07-01T00:26:50.385Z,69.12
2018-07-01T00:27:50.384Z,69.40
2018-07-01T00:28:50.378Z,69.12
2018-07-01T00:29:50.363Z,69.12
2018-07-01T00:30:50.359Z,69.21
2018-07-01T00:31:50.350Z,69.50
2018-07-01T00:32:50.342Z,69.40
2018-07-01T00:33:50.336Z,69.02
2018-07-01T00:34:50.323Z,69.12
2018-07-01T00:35:50.319Z,69.02
2018-07-01T00:36:50.311Z,69.12
2018-07-01T00:37:50.304Z,69.31
2018-07-01T00:38:50.294Z,68.83
2018-07-01T00:39:50.289Z,68.92
2018-07-01T00:40:50.286Z,69.12
2018-07-01T00:41:50.273Z,69.40
2018-07-01T00:42:50.271Z,69.60
2018-07-01T00:43:50.255Z,69.98
2018-07-01T00:44:50.251Z,69.50
2018-07-01T00:45:50.244Z,70.07
2018-07-01T00:46:50.235Z,68.92
2018-07-01T00:47:50.231Z,68.92
2018-07-01T00:48:50.225Z,68.83
2018-07-01T00:49:50.214Z,69.08
2018-07-01T00:50:50.210Z,69.56
2018-07-01T00:51:50.196Z,69.66
2018-07-01T00:52:50.194Z,69.95
2018-07-01T00:53:50.184Z,69.37
2018-07-01T00:54:50.174Z,68.70
2018-07-01T00:55:50.169Z,69.08
2018-07-01T00:56:50.158Z,68.89
2018-07-01T00:57:50.149Z,69.08
2018-07-01T00:58:50.144Z,69.56
2018-07-01T00:59:50.137Z,68.98
2018-07-01T01:00:50.125Z,69.85
2018-07-01T01:01:50.122Z,69.75
2018-07-01T01:02:50.109Z,69.02
2018-07-01T01:03:50.097Z,68.89
2018-07-01T01:04:50.091Z,68.83
2018-07-01T01:05:50.090Z,68.92
2018-07-01T01:06:50.085Z,68.51
2018-07-01T01:07:50.076Z,68.63
2018-07-01T01:08:50.068Z,69.02
2018-07-01T01:09:50.060Z,68.89
2018-07-01T01:10:50.047Z,68.89
2018-07-01T01:11:50.046Z,68.89
2018-07-01T01:12:50.040Z,68.41
2018-07-01T01:13:50.029Z,68.41
2018-07-01T01:14:50.019Z,68.35
2018-07-01T01:15:50.011Z,68.31
2018-07-01T01:16:50.007Z,68.70
2018-07-01T01:17:49.999Z,68.70
2018-07-01T01:18:49.986Z,68.21
2018-07-01T01:19:49.983Z,68.12
2018-07-01T01:20:49.974Z,68.31
2018-07-01T01:21:49.961Z,68.21
2018-07-01T01:22:49.955Z,68.60
2018-07-01T01:23:49.947Z,67.93
2018-07-01T01:24:49.938Z,68.70
2018-07-01T01:25:49.931Z,68.51
2018-07-01T01:26:49.923Z,68.31
2018-07-01T01:27:49.917Z,68.51
2018-07-01T01:28:49.913Z,68.41
2018-07-01T01:29:49.902Z,68.60
2018-07-01T01:30:49.896Z,68.31
2018-07-01T01:31:49.888Z,68.31
2018-07-01T01:32:49.886Z,67.83
2018-07-01T01:33:49.866Z,67.83
2018-07-01T01:34:49.868Z,68.41
2018-07-01T01:35:49.856Z,68.41
2018-07-01T01:36:49.847Z,68.70
2018-07-01T01:37:49.839Z,68.41
2018-07-01T01:38:49.831Z,68.98
2018-07-01T01:39:49.823Z,68.79
2018-07-01T01:40:49.819Z,68.89
2018-07-01T01:41:49.814Z,68.60
2018-07-01T01:42:49.798Z,69.37
2018-07-01T01:43:49.790Z,68.98
2018-07-01T01:44:49.785Z,69.46
2018-07-01T01:45:49.774Z,69.46
2018-07-01T01:46:49.770Z,69.37
2018-07-01T01:47:49.764Z,69.18
2018-07-01T01:48:49.754Z,69.37
2018-07-01T01:49:49.746Z,70.04
2018-07-01T01:50:49.738Z,68.89
2018-07-01T01:51:49.731Z,68.79
2018-07-01T01:52:49.720Z,68.79
2018-07-01T01:53:49.713Z,68.70
2018-07-01T01:54:49.705Z,68.79
2018-07-01T01:55:49.691Z,68.79
2018-07-01T01:56:49.689Z,69.37
2018-07-01T01:57:49.681Z,68.98
2018-07-01T01:58:49.676Z,68.60
2018-07-01T01:59:49.661Z,68.79
2018-07-01T02:00:49.653Z,68.41
2018-07-01T02:01:49.652Z,69.18
2018-07-01T02:02:49.643Z,68.89
2018-07-01T02:03:49.638Z,69.27
2018-07-01T02:04:49.629Z,68.79
2018-07-01T02:05:49.618Z,68.18
2018-07-01T02:06:49.610Z,68.41
2018-07-01T02:07:49.600Z,68.60
2018-07-01T02:08:49.596Z,68.51
2018-07-01T02:09:49.587Z,68.60
2018-07-01T02:10:49.575Z,68.41
2018-07-01T02:11:49.567Z,68.21
2018-07-01T02:12:49.563Z,68.31
2018-07-01T02:13:49.561Z,68.60
2018-07-01T02:14:49.554Z,68.21
2018-07-01T02:15:49.541Z,68.41
2018-07-01T02:16:49.576Z,67.93
2018-07-01T02:17:49.522Z,68.66
2018-07-01T02:18:49.514Z,68.70
2018-07-01T02:19:49.502Z,68.70
2018-07-01T02:20:49.500Z,68.51
2018-07-01T02:21:49.491Z,68.98
2018-07-01T02:22:49.480Z,68.28
2018-07-01T02:23:49.475Z,68.31
2018-07-01T02:24:49.463Z,68.57
2018-07-01T02:25:49.459Z,68.98
2018-07-01T02:26:49.454Z,69.08
2018-07-01T02:27:49.444Z,68.57
2018-07-01T02:28:49.434Z,68.95
2018-07-01T02:29:49.429Z,69.14
2018-07-01T02:30:49.418Z,69.14
2018-07-01T02:31:49.410Z,69.14
2018-07-01T02:32:49.394Z,69.34
2018-07-01T02:33:49.393Z,68.85
2018-07-01T02:34:49.384Z,69.05
2018-07-01T02:35:49.375Z,68.85
2018-07-01T02:36:49.368Z,69.43
2018-07-01T02:37:49.361Z,69.14
2018-07-01T02:38:49.349Z,69.53
2018-07-01T02:39:49.345Z,68.95
2018-07-01T02:40:49.335Z,68.76
2018-07-01T02:41:49.323Z,68.76
2018-07-01T02:42:49.320Z,68.76
2018-07-01T02:43:49.313Z,68.95
2018-07-01T02:44:49.306Z,69.43
2018-07-01T02:45:49.297Z,69.24
2018-07-01T02:46:49.288Z,68.95
2018-07-01T02:47:49.280Z,68.76
2018-07-01T02:48:49.268Z,69.05
2018-07-01T02:49:49.263Z,69.34
2018-07-01T02:50:49.253Z,69.43
2018-07-01T02:51:49.247Z,69.43
2018-07-01T02:52:49.243Z,69.72
2018-07-01T02:53:49.245Z,69.81
2018-07-01T02:54:49.220Z,69.72
2018-07-01T02:55:49.224Z,70.01
2018-07-01T02:56:49.206Z,69.81
2018-07-01T02:57:49.201Z,70.10
2018-07-01T02:58:49.191Z,69.72
2018-07-01T02:59:49.183Z,69.91
2018-07-01T03:00:49.177Z,69.72
2018-07-01T03:01:49.165Z,68.76
2018-07-01T03:02:49.155Z,69.05
2018-07-01T03:03:49.153Z,69.81
2018-07-01T03:04:49.141Z,69.81
2018-07-01T03:05:49.134Z,69.81
2018-07-01T03:06:49.123Z,69.62
2018-07-01T03:07:49.118Z,69.81
2018-07-01T03:08:49.114Z,69.91
2018-07-01T03:09:49.100Z,70.20
2018-07-01T03:10:49.094Z,70.29
2018-07-01T03:11:49.084Z,70.39
2018-07-01T03:12:49.078Z,69.91
2018-07-01T03:13:49.067Z,69.72
2018-07-01T03:14:49.059Z,69.81
2018-07-01T03:15:49.048Z,70.36
2018-07-01T03:16:49.042Z,69.87
2018-07-01T03:17:49.075Z,70.20
2018-07-01T03:18:49.028Z,69.72
2018-07-01T03:19:49.021Z,70.26
2018-07-01T03:20:49.005Z,70.17
2018-07-01T03:21:49.003Z,70.20
2018-07-01T03:22:48.992Z,70.39
2018-07-01T03:23:48.988Z,70.64
2018-07-01T03:24:48.976Z,70.68
2018-07-01T03:25:48.970Z,70.64
2018-07-01T03:26:48.957Z,70.64
2018-07-01T03:27:48.949Z,70.26
2018-07-01T03:28:48.943Z,70.84
2018-07-01T03:29:48.936Z,70.45
2018-07-01T03:30:49.005Z,71.51
2018-07-01T03:31:48.921Z,70.64
2018-07-01T03:32:48.922Z,70.07
2018-07-01T03:33:48.899Z,71.12
2018-07-01T03:34:48.897Z,71.45
2018-07-01T03:35:48.888Z,70.26
2018-07-01T03:36:48.880Z,70.64
2018-07-01T03:37:48.871Z,70.64
2018-07-01T03:38:48.859Z,70.36
2018-07-01T03:39:48.855Z,70.74
2018-07-01T03:40:48.849Z,70.64
2018-07-01T03:41:48.833Z,70.45
2018-07-01T03:42:48.828Z,70.64
2018-07-01T03:43:48.821Z,70.26
2018-07-01T03:44:48.810Z,70.45
2018-07-01T03:45:48.802Z,70.55
2018-07-01T03:46:48.794Z,70.55
2018-07-01T03:47:48.784Z,70.17
2018-07-01T03:48:48.775Z,71.22
2018-07-01T03:49:48.769Z,70.74
2018-07-01T03:50:48.762Z,70.93
2018-07-01T03:51:48.754Z,70.84
2018-07-01T03:52:48.748Z,71.22
2018-07-01T03:53:48.737Z,70.74
2018-07-01T03:54:48.730Z,70.74
2018-07-01T03:55:48.719Z,70.64
2018-07-01T03:56:48.707Z,70.64
2018-07-01T03:57:48.867Z,70.93
2018-07-01T03:58:48.699Z,71.51
2018-07-01T03:59:48.693Z,70.84
2018-07-01T04:00:48.683Z,70.74
2018-07-01T04:01:48.671Z,70.84
2018-07-01T04:02:48.664Z,70.55
2018-07-01T04:03:48.651Z,70.26
2018-07-01T04:04:48.642Z,70.26
2018-07-01T04:05:48.638Z,70.84
2018-07-01T04:06:48.629Z,71.31
2018-07-01T04:07:48.624Z,71.98
2018-07-01T04:08:48.608Z,71.89
2018-07-01T04:09:48.601Z,71.89
2018-07-01T04:10:48.593Z,71.80
2018-07-01T04:11:48.586Z,72.08
2018-07-01T04:12:48.583Z,71.80
2018-07-01T04:13:48.566Z,71.12
2018-07-01T04:14:48.560Z,70.26
2018-07-01T04:15:48.554Z,71.03
2018-07-01T04:16:48.538Z,70.84
2018-07-01T04:17:48.535Z,71.80
2018-07-01T04:18:48.527Z,71.12
2018-07-01T04:19:48.519Z,71.31
2018-07-01T04:20:48.506Z,70.84
2018-07-01T04:21:48.499Z,71.12
2018-07-01T04:22:48.495Z,70.64
2018-07-01T04:23:48.487Z,70.45
2018-07-01T04:24:48.477Z,70.93
2018-07-01T04:25:48.470Z,70.84
2018-07-01T04:26:48.458Z,71.51
2018-07-01T04:27:48.450Z,72.37
2018-07-01T04:28:48.440Z,72.47
2018-07-01T04:29:48.434Z,72.37
2018-07-01T04:30:48.415Z,71.98
2018-07-01T04:31:48.417Z,72.37
2018-07-01T04:32:48.411Z,72.66
2018-07-01T04:33:48.398Z,70.36
2018-07-01T04:34:48.395Z,69.87
2018-07-01T04:35:48.381Z,70.42
2018-07-01T04:36:48.374Z,69.93
2018-07-01T04:37:48.360Z,69.68
2018-07-01T04:38:48.360Z,70.03
2018-07-01T04:39:48.350Z,70.23
2018-07-01T04:40:48.340Z,70.32
2018-07-01T04:41:48.335Z,70.99
2018-07-01T04:42:48.325Z,71.03
2018-07-01T04:43:48.315Z,71.86
2018-07-01T04:44:48.308Z,72.24
2018-07-01T04:45:48.297Z,72.37
2018-07-01T04:46:48.287Z,71.80
2018-07-01T04:47:48.279Z,72.56
2018-07-01T04:48:48.271Z,72.28
2018-07-01T04:49:48.265Z,72.28
2018-07-01T04:50:48.253Z,70.93
2018-07-01T04:51:48.246Z,71.12
2018-07-01T04:52:48.233Z,71.03
2018-07-01T04:53:48.232Z,70.84
2018-07-01T04:54:48.230Z,70.61
2018-07-01T04:55:48.212Z,71.19
2018-07-01T04:56:48.207Z,71.86
2018-07-01T04:57:48.197Z,72.05
2018-07-01T04:58:48.192Z,72.88
2018-07-01T04:59:48.175Z,73.30
2018-07-01T05:00:48.173Z,73.87
2018-07-01T05:01:48.173Z,74.44
2018-07-01T05:02:48.152Z,74.44
2018-07-01T05:03:48.145Z,73.77
2018-07-01T05:04:48.133Z,74.35
2018-07-01T05:05:48.126Z,74.06
2018-07-01T05:06:48.126Z,74.06
2018-07-01T05:07:48.112Z,74.35
2018-07-01T05:08:48.102Z,74.83
2018-07-01T05:09:48.090Z,74.35
2018-07-01T05:10:48.091Z,74.35
2018-07-01T05:11:48.073Z,74.26
2018-07-01T05:12:48.066Z,73.77
2018-07-01T05:13:48.058Z,74.26
2018-07-01T05:14:48.053Z,73.87
2018-07-01T05:15:48.046Z,73.77
2018-07-01T05:16:48.031Z,74.26
2018-07-01T05:17:48.020Z,74.01
2018-07-01T05:18:48.014Z,74.26
2018-07-01T05:19:48.009Z,73.77
2018-07-01T05:20:48.000Z,73.81
2018-07-01T05:21:47.987Z,73.97
2018-07-01T05:22:47.979Z,73.87
2018-07-01T05:23:47.973Z,73.58
2018-07-01T05:24:47.961Z,73.58
2018-07-01T05:25:47.950Z,73.97
2018-07-01T05:26:47.945Z,73.49
2018-07-01T05:27:47.933Z,73.68
2018-07-01T05:28:47.931Z,74.35
2018-07-01T05:29:47.920Z,73.97
2018-07-01T05:30:47.914Z,74.44
2018-07-01T05:31:47.902Z,74.16
2018-07-01T05:32:47.896Z,74.44
2018-07-01T05:33:47.911Z,74.16
2018-07-01T05:34:47.876Z,74.73
2018-07-01T05:35:47.879Z,75.02
2018-07-01T05:36:47.861Z,75.40
2018-07-01T05:37:47.850Z,74.83
2018-07-01T05:38:47.843Z,74.83
2018-07-01T05:39:47.835Z,74.93
2018-07-01T05:40:47.823Z,75.02
2018-07-01T05:41:47.813Z,74.83
2018-07-01T05:42:47.807Z,74.64
2018-07-01T05:43:47.797Z,74.93
2018-07-01T05:44:47.793Z,75.60
2018-07-01T05:45:47.781Z,75.31
2018-07-01T05:46:47.776Z,75.40
2018-07-01T05:47:47.770Z,75.50
2018-07-01T05:48:47.758Z,75.60
2018-07-01T05:49:47.748Z,75.12
2018-07-01T05:50:47.740Z,74.77
2018-07-01T05:51:47.735Z,74.73
2018-07-01T05:52:47.722Z,74.64
2018-07-01T05:53:47.713Z,75.02
2018-07-01T05:54:47.713Z,74.64
2018-07-01T05:55:47.697Z,74.87
2018-07-01T05:56:47.687Z,74.77
2018-07-01T05:57:47.677Z,74.87
2018-07-01T05:58:47.676Z,74.68
2018-07-01T05:59:47.661Z,74.87
2018-07-01T06:00:47.649Z,75.06
2018-07-01T06:01:47.644Z,74.68
2018-07-01T06:02:47.639Z,74.87
2018-07-01T06:03:47.626Z,74.77
2018-07-01T06:04:47.628Z,74.10
2018-07-01T06:05:47.610Z,73.91
2018-07-01T06:06:47.608Z,73.85
2018-07-01T06:07:47.597Z,73.46
2018-07-01T06:08:47.641Z,73.37
2018-07-01T06:09:47.573Z,73.50
2018-07-01T06:10:47.567Z,72.64
2018-07-01T06:11:47.563Z,72.64
2018-07-01T06:12:47.547Z,71.77
2018-07-01T06:13:47.539Z,71.87
2018-07-01T06:14:47.537Z,71.91
2018-07-01T06:15:47.534Z,71.61
2018-07-01T06:16:47.610Z,71.14
2018-07-01T06:17:47.513Z,70.84
2018-07-01T06:18:47.507Z,70.75
2018-07-01T06:19:47.502Z,70.94
2018-07-01T06:20:47.482Z,70.59
2018-07-01T06:21:47.480Z,70.50
2018-07-01T06:22:47.468Z,70.40
2018-07-01T06:23:47.468Z,70.50
2018-07-01T06:24:47.457Z,70.62
2018-07-01T06:25:47.448Z,69.95
2018-07-01T06:26:47.437Z,69.76
2018-07-01T06:27:47.426Z,68.99
2018-07-01T06:28:47.423Z,68.99
2018-07-01T06:29:47.409Z,68.32
2018-07-01T06:30:47.400Z,68.80
2018-07-01T06:31:47.399Z,68.84
2018-07-01T06:32:47.388Z,68.64
2018-07-01T06:33:47.386Z,68.35
2018-07-01T06:34:47.378Z,68.74
2018-07-01T06:35:47.367Z,68.26
2018-07-01T06:36:47.363Z,67.52
2018-07-01T06:37:47.352Z,65.78
2018-07-01T06:38:47.344Z,66.36
2018-07-01T06:39:47.339Z,65.72
2018-07-01T06:40:47.335Z,65.91
2018-07-01T06:41:47.321Z,65.27
2018-07-01T06:42:47.312Z,64.59
2018-07-01T06:43:47.315Z,64.34
2018-07-01T06:44:47.297Z,63.95
2018-07-01T06:45:47.291Z,63.18
2018-07-01T06:46:47.293Z,65.05
2018-07-01T06:47:47.276Z,64.28
2018-07-01T06:48:47.267Z,63.21
2018-07-01T06:49:47.264Z,62.63
2018-07-01T06:50:47.258Z,63.21
2018-07-01T06:51:47.246Z,62.28
2018-07-01T06:52:47.244Z,62.37
2018-07-01T06:53:47.239Z,62.28
2018-07-01T06:54:47.229Z,64.89
2018-07-01T06:55:47.224Z,66.14
2018-07-01T06:56:47.217Z,65.85
2018-07-01T06:57:47.207Z,63.92
2018-07-01T06:58:47.199Z,63.82
2018-07-01T06:59:47.195Z,63.53
2018-07-01T07:00:47.185Z,63.47
2018-07-01T07:01:47.178Z,63.15
2018-07-01T07:02:47.172Z,64.31
2018-07-01T07:03:47.168Z,62.31
2018-07-01T07:04:47.162Z,62.60
2018-07-01T07:05:47.155Z,62.40
2018-07-01T07:06:47.147Z,62.70
2018-07-01T07:07:47.155Z,62.98
2018-07-01T07:08:47.138Z,62.70
2018-07-01T07:09:47.126Z,62.21
2018-07-01T07:10:47.120Z,61.54
2018-07-01T07:11:47.160Z,61.44
2018-07-01T07:12:47.109Z,61.05
2018-07-01T07:13:47.102Z,60.89
2018-07-01T07:14:47.096Z,60.79
2018-07-01T07:15:47.093Z,61.18
2018-07-01T07:16:47.078Z,60.89
2018-07-01T07:17:47.082Z,60.89
2018-07-01T07:18:47.071Z,60.69
2018-07-01T07:19:47.066Z,60.60
2018-07-01T07:20:47.060Z,59.63
2018-07-01T07:21:47.053Z,60.02
2018-07-01T07:22:47.041Z,59.15
2018-07-01T07:23:47.041Z,58.09
2018-07-01T07:24:47.033Z,58.37
2018-07-01T07:25:47.030Z,57.89
2018-07-01T07:26:47.019Z,58.09
2018-07-01T07:27:47.018Z,59.83
2018-07-01T07:28:47.015Z,60.41
2018-07-01T07:29:46.999Z,58.47
2018-07-01T07:30:46.998Z,57.89
2018-07-01T07:31:46.992Z,58.67
2018-07-01T07:32:46.990Z,59.53
2018-07-01T07:33:46.979Z,59.73
2018-07-01T07:34:46.974Z,59.92
2018-07-01T07:35:46.966Z,58.95
2018-07-01T07:36:46.964Z,59.15
2018-07-01T07:37:46.951Z,58.28
2018-07-01T07:38:46.948Z,57.41
2018-07-01T07:39:46.939Z,58.76
2018-07-01T07:40:46.937Z,58.40
2018-07-01T07:41:46.932Z,58.28
2018-07-01T07:42:46.930Z,57.03
2018-07-01T07:43:46.916Z,55.77
2018-07-01T07:44:46.980Z,55.19
2018-07-01T07:45:46.912Z,55.29
2018-07-01T07:46:46.903Z,55.09
2018-07-01T07:47:46.901Z,55.87
2018-07-01T07:48:46.891Z,57.77
2018-07-01T07:49:46.887Z,57.29
2018-07-01T07:50:46.877Z,56.93
2018-07-01T07:51:46.871Z,58.28
2018-07-01T07:52:46.869Z,60.21
2018-07-01T07:53:46.862Z,57.79
2018-07-01T07:54:46.858Z,57.41
2018-07-01T07:55:46.854Z,60.11
2018-07-01T07:56:46.851Z,60.02
2018-07-01T07:57:46.838Z,59.60
2018-07-01T07:58:46.838Z,59.31
2018-07-01T07:59:46.830Z,60.09
2018-07-01T08:00:46.824Z,60.96
2018-07-01T08:01:46.822Z,60.57
2018-07-01T08:02:46.807Z,59.89
2018-07-01T08:03:46.803Z,60.57
2018-07-01T08:04:46.803Z,61.25
2018-07-01T08:05:46.791Z,60.96
2018-07-01T08:06:46.795Z,61.12
2018-07-01T08:07:46.787Z,61.63
2018-07-01T08:08:46.777Z,61.63
2018-07-01T08:09:46.768Z,60.83
2018-07-01T08:10:46.762Z,62.08
2018-07-01T08:11:46.758Z,62.31
2018-07-01T08:12:46.822Z,62.98
2018-07-01T08:13:46.749Z,62.60
2018-07-01T08:14:46.745Z,62.50
2018-07-01T08:15:46.733Z,62.31
2018-07-01T08:16:46.740Z,62.31
2018-07-01T08:17:46.724Z,62.70
2018-07-01T08:18:46.716Z,62.50
2018-07-01T08:19:46.712Z,62.60
2018-07-01T08:20:46.708Z,62.31
2018-07-01T08:21:46.698Z,62.21
2018-07-01T08:22:46.694Z,62.70
2018-07-01T08:23:46.690Z,62.31
2018-07-01T08:24:46.692Z,63.18
2018-07-01T08:25:46.679Z,62.89
2018-07-01T08:26:46.673Z,62.70
2018-07-01T08:27:46.668Z,62.70
2018-07-01T08:28:46.663Z,63.02
2018-07-01T08:29:46.652Z,64.08
2018-07-01T08:30:46.643Z,65.63
2018-07-01T08:31:46.647Z,64.47
2018-07-01T08:32:46.641Z,62.44
2018-07-01T08:33:46.630Z,64.56
2018-07-01T08:34:46.630Z,63.50
2018-07-01T08:35:46.622Z,63.43
2018-07-01T08:36:46.622Z,63.79
2018-07-01T08:37:46.611Z,62.95
2018-07-01T08:38:46.600Z,62.76
2018-07-01T08:39:46.598Z,62.85
2018-07-01T08:40:46.595Z,61.89
2018-07-01T08:41:46.585Z,64.59
2018-07-01T08:42:46.583Z,62.66
2018-07-01T08:43:46.575Z,61.02
2018-07-01T08:44:46.571Z,58.50
2018-07-01T08:45:46.562Z,59.79
2018-07-01T08:46:46.569Z,60.57
2018-07-01T08:47:46.550Z,60.85
2018-07-01T08:48:46.549Z,57.56
2018-07-01T08:49:46.539Z,56.02
2018-07-01T08:50:46.540Z,57.37
2018-07-01T08:51:46.529Z,59.21
2018-07-01T08:52:46.639Z,59.72
2018-07-01T08:53:46.521Z,56.14
2018-07-01T08:54:46.525Z,56.52
2018-07-01T08:55:46.513Z,57.50
2018-07-01T08:56:46.510Z,58.17
2018-07-01T08:57:46.502Z,56.34
2018-07-01T08:58:46.492Z,58.95
2018-07-01T08:59:46.491Z,55.17
2018-07-01T09:00:46.480Z,54.39
2018-07-01T09:01:46.472Z,54.79
2018-07-01T09:02:46.478Z,55.07
2018-07-01T09:03:46.471Z,55.56
2018-07-01T09:04:46.460Z,55.49
2018-07-01T09:05:46.457Z,56.34
2018-07-01T09:06:46.453Z,56.07
2018-07-01T09:07:46.449Z,55.40
2018-07-01T09:08:46.483Z,55.00
2018-07-01T09:09:46.429Z,54.71
2018-07-01T09:10:46.436Z,53.53
2018-07-01T09:11:46.429Z,53.17
2018-07-01T09:12:46.419Z,53.26
2018-07-01T09:13:46.416Z,53.65
2018-07-01T09:14:46.413Z,54.33
2018-07-01T09:15:46.407Z,53.65
2018-07-01T09:16:46.436Z,55.68
2018-07-01T09:17:46.393Z,54.43
2018-07-01T09:18:46.396Z,54.03
2018-07-01T09:19:46.389Z,54.23
2018-07-01T09:20:46.381Z,54.52
2018-07-01T09:21:46.380Z,53.36
2018-07-01T09:22:46.376Z,52.39
2018-07-01T09:23:46.373Z,53.07
2018-07-01T09:24:46.360Z,53.07
2018-07-01T09:25:46.358Z,52.68
2018-07-01T09:26:46.352Z,52.68
2018-07-01T09:27:46.349Z,52.68
2018-07-01T09:28:46.365Z,51.52
2018-07-01T09:29:46.338Z,53.36
2018-07-01T09:30:46.335Z,53.85
2018-07-01T09:31:46.332Z,53.87
2018-07-01T09:32:46.324Z,52.29
2018-07-01T09:33:46.315Z,53.65
2018-07-01T09:34:46.395Z,51.90
2018-07-01T09:35:46.308Z,52.51
2018-07-01T09:36:46.306Z,51.35
2018-07-01T09:37:46.300Z,51.54
2018-07-01T09:38:46.297Z,52.71
2018-07-01T09:39:46.296Z,51.74
2018-07-01T09:40:46.293Z,51.35
2018-07-01T09:41:46.281Z,51.84
2018-07-01T09:42:46.275Z,52.32
2018-07-01T09:43:46.269Z,51.25
2018-07-01T09:44:46.267Z,50.48
2018-07-01T09:45:46.258Z,50.09
2018-07-01T09:46:46.259Z,51.16
2018-07-01T09:47:46.254Z,51.25
2018-07-01T09:48:46.250Z,51.06
2018-07-01T09:49:46.250Z,51.25
2018-07-01T09:50:46.287Z,50.29
2018-07-01T09:51:46.237Z,50.57
2018-07-01T09:52:46.227Z,51.09
2018-07-01T09:53:46.225Z,50.12
2018-07-01T09:54:46.222Z,50.60
2018-07-01T09:55:46.212Z,50.31
2018-07-01T09:56:46.214Z,50.12
2018-07-01T09:57:46.204Z,51.47
2018-07-01T09:58:46.202Z,51.09
2018-07-01T09:59:46.205Z,50.79
2018-07-01T10:00:46.190Z,50.99
2018-07-01T10:01:46.187Z,51.37
2018-07-01T10:02:46.180Z,50.41
2018-07-01T10:03:46.177Z,51.37
2018-07-01T10:04:46.177Z,51.37
2018-07-01T10:05:46.166Z,51.28
2018-07-01T10:06:46.168Z,51.09
2018-07-01T10:07:46.157Z,50.12
2018-07-01T10:08:46.159Z,50.50
2018-07-01T10:09:46.150Z,51.28
2018-07-01T10:10:46.142Z,51.37
2018-07-01T10:11:46.140Z,50.82
2018-07-01T10:12:46.139Z,50.72
2018-07-01T10:13:46.132Z,49.85
2018-07-01T10:14:46.126Z,49.07
2018-07-01T10:15:46.124Z,49.15
2018-07-01T10:17:46.119Z,49.37
2018-07-01T10:18:46.133Z,50.62
2018-07-01T10:19:46.103Z,49.17
2018-07-01T10:20:46.103Z,48.66
2018-07-01T10:21:46.095Z,49.75
2018-07-01T10:22:46.092Z,50.24
2018-07-01T10:24:07.098Z,49.27
2018-07-01T10:24:46.084Z,49.17
2018-07-01T10:25:46.073Z,49.66
2018-07-01T10:26:46.073Z,49.07
2018-07-01T10:27:46.071Z,49.95
2018-07-01T10:28:46.065Z,49.75
2018-07-01T10:30:07.063Z,50.34
2018-07-01T10:30:46.055Z,49.85
2018-07-01T10:31:46.050Z,48.61
2018-07-01T10:32:46.045Z,48.71
2018-07-01T10:33:46.040Z,48.52
2018-07-01T10:34:46.044Z,47.55
2018-07-01T10:36:07.040Z,48.61
2018-07-01T10:36:46.030Z,48.52
2018-07-01T10:37:46.033Z,47.45
2018-07-01T10:38:46.024Z,47.55
2018-07-01T10:39:46.012Z,45.80
2018-07-01T10:40:46.011Z,45.62
2018-07-01T10:42:07.010Z,45.14
2018-07-01T10:42:46.008Z,46.69
2018-07-01T10:43:45.999Z,47.47
2018-07-01T10:44:46.005Z,45.82
2018-07-01T10:45:46.054Z,46.41
2018-07-01T10:46:45.994Z,46.98
2018-07-01T10:48:06.989Z,47.08
2018-07-01T10:48:45.977Z,48.93
2018-07-01T10:49:45.971Z,48.05
2018-07-01T10:50:45.966Z,48.44
2018-07-01T10:51:46.030Z,47.18
2018-07-01T10:52:45.963Z,47.78
2018-07-01T10:54:06.967Z,45.72
2018-07-01T10:54:45.955Z,45.82
2018-07-01T10:55:45.946Z,46.04
2018-07-01T10:56:45.949Z,46.33
2018-07-01T10:57:45.942Z,46.33
2018-07-01T10:58:45.940Z,45.94
2018-07-01T11:00:06.942Z,45.94
2018-07-01T11:00:45.932Z,44.19
2018-07-01T11:01:45.928Z,43.61
2018-07-01T11:02:45.920Z,44.29
2018-07-01T11:03:45.921Z,44.65
2018-07-01T11:04:45.917Z,45.24
2018-07-01T11:06:07.054Z,44.19
2018-07-01T11:06:45.906Z,43.90
2018-07-01T11:07:45.908Z,44.58
2018-07-01T11:08:45.896Z,44.68
2018-07-01T11:09:45.896Z,46.33
2018-07-01T11:10:45.890Z,45.36
2018-07-01T11:12:06.896Z,43.22
2018-07-01T11:12:45.883Z,43.80
2018-07-01T11:13:45.882Z,44.02
2018-07-01T11:14:45.875Z,42.46
2018-07-01T11:15:45.873Z,43.63
2018-07-01T11:16:45.867Z,44.70
2018-07-01T11:18:06.875Z,43.34
2018-07-01T11:18:45.861Z,43.54
2018-07-01T11:19:45.854Z,44.12
2018-07-01T11:20:45.851Z,43.63
2018-07-01T11:21:45.847Z,44.31
2018-07-01T11:22:45.844Z,43.34
2018-07-01T11:24:06.857Z,44.12
2018-07-01T11:24:45.836Z,43.05
2018-07-01T11:25:45.835Z,43.95
2018-07-01T11:26:45.918Z,43.73
2018-07-01T11:27:45.824Z,42.87
2018-07-01T11:28:45.825Z,42.87
2018-07-01T11:30:06.827Z,42.87
2018-07-01T11:30:45.816Z,43.95
2018-07-01T11:31:45.814Z,45.01
2018-07-01T11:32:45.861Z,44.43
2018-07-01T11:33:45.808Z,43.95
2018-07-01T11:34:45.804Z,42.87
2018-07-01T11:36:06.812Z,43.07
2018-07-01T11:36:45.802Z,44.43
2018-07-01T11:37:45.801Z,43.26
2018-07-01T11:38:45.795Z,42.97
2018-07-01T11:39:45.791Z,42.87
2018-07-01T11:40:45.781Z,42.58
2018-07-01T11:42:06.785Z,42.29
2018-07-01T11:42:45.781Z,42.41
2018-07-01T11:43:45.771Z,42.97
2018-07-01T11:44:45.774Z,44.04
2018-07-01T11:45:45.766Z,44.04
2018-07-01T11:46:45.764Z,43.65
2018-07-01T11:48:06.771Z,44.33
2018-07-01T11:48:45.757Z,44.04
2018-07-01T11:49:45.752Z,43.96
2018-07-01T11:50:45.748Z,44.16
2018-07-01T11:51:45.752Z,43.09
2018-07-01T11:52:45.748Z,42.99
2018-07-01T11:54:06.749Z,42.21
2018-07-01T11:54:45.737Z,42.21
2018-07-01T11:55:45.733Z,41.34
2018-07-01T11:56:45.734Z,42.11
2018-07-01T11:57:45.730Z,42.31
2018-07-01T11:58:45.730Z,42.31
2018-07-01T12:00:06.726Z,41.24
2018-07-01T12:00:45.722Z,42.50
2018-07-01T12:01:45.758Z,42.31
2018-07-01T12:02:45.719Z,41.73
2018-07-01T12:03:45.721Z,41.53
2018-07-01T12:05:02.954Z,42.82
2018-07-01T12:06:06.711Z,41.73
2018-07-01T12:06:45.705Z,41.63
2018-07-01T12:07:45.703Z,41.14
2018-07-01T12:08:45.699Z,40.66
2018-07-01T12:09:45.692Z,42.21
2018-07-01T12:10:45.692Z,43.50
2018-07-01T12:12:06.697Z,42.21
2018-07-01T12:12:45.681Z,41.36
2018-07-01T12:13:45.733Z,42.43
2018-07-01T12:14:45.678Z,41.75
2018-07-01T12:15:45.674Z,41.24
2018-07-01T12:16:45.675Z,42.21
2018-07-01T12:18:06.676Z,41.63
2018-07-01T12:18:45.667Z,42.43
2018-07-01T12:19:45.669Z,40.88
2018-07-01T12:20:45.667Z,40.08
2018-07-01T12:21:45.664Z,41.53
2018-07-01T12:22:45.661Z,40.95
2018-07-01T12:24:06.667Z,42.14
2018-07-01T12:24:45.651Z,39.88
2018-07-01T12:25:45.650Z,40.78
2018-07-01T12:26:45.646Z,40.68
2018-07-01T12:27:45.644Z,42.43
2018-07-01T12:28:45.672Z,42.25
2018-07-01T12:30:06.651Z,42.24
2018-07-01T12:30:45.633Z,40.58
2018-07-01T12:31:45.635Z,41.38
2018-07-01T12:32:45.631Z,40.21
2018-07-01T12:33:45.627Z,40.89
2018-07-01T12:34:45.689Z,39.34
2018-07-01T12:36:06.630Z,38.95
2018-07-01T12:36:45.618Z,39.82
2018-07-01T12:37:45.618Z,40.11
2018-07-01T12:38:45.613Z,39.92
2018-07-01T12:39:45.621Z,39.92
2018-07-01T12:40:45.610Z,40.70
2018-07-01T12:42:06.645Z,42.16
2018-07-01T12:42:45.610Z,40.11
2018-07-01T12:43:45.604Z,39.24
2018-07-01T12:44:45.601Z,39.04
2018-07-01T12:45:45.599Z,39.72
2018-07-01T12:46:45.594Z,39.55
2018-07-01T12:48:06.691Z,40.11
2018-07-01T12:48:45.595Z,39.92
2018-07-01T12:49:45.586Z,39.72
2018-07-01T12:50:45.582Z,40.03
2018-07-01T12:51:45.590Z,38.09
2018-07-01T12:52:45.582Z,39.06
2018-07-01T12:54:06.584Z,39.26